Ruby Princess — ZCDY2 — position and weather

sailwx.info

Track history (hours):
 
Tides and Currents Weather Stations Pressure Air Temp Water Temp Dewpoint Dewpoint Depression Visibility Wind Speed Wind Dir Waves Ship Positions

Ruby Princess

Last reported at 2018-Feb-24 12:00 UTC. Time now 2018-Feb-24 12:18 UTC.
Position N 33°27' W 118°10'.

Length 289 m; draft 8.6 m.

Type: Ship. MMSI: 310567000.

Date/timePositionNaut miles runAvg speedWind from/ knotsBaromVisibWave heightAir tempDewpointWater temp
2018-Feb-24 12:00N 33°27' W 118°10'510.7
2018-Feb-24 11:30N 33°32' W 118°12'2 3.3
2018-Feb-24 11:00N 33°30' W 118°12'2115.7 030 / 151026.010.8 11.5-1.015.0
2018-Feb-24 09:39N 33°42' W 118°33'211.0
2018-Feb-24 09:28N 33°43' W 118°35'510.8
2018-Feb-24 09:00N 33°45' W 118°40'510.5
2018-Feb-24 08:30N 33°48' W 118°46'510.1
2018-Feb-24 08:00N 33°50' W 118°51'510.2
2018-Feb-24 07:30N 33°53' W 118°57'510.4
2018-Feb-24 06:59N 33°56' W 119°02'510.4
2018-Feb-24 06:30N 33°58' W 119°07'510.1
2018-Feb-24 06:00N 34°01' W 119°12'510.1
2018-Feb-24 05:29N 34°03' W 119°18'5 9.9
2018-Feb-24 04:58N 34°04' W 119°24'510.1
2018-Feb-24 04:30N 34°05' W 119°30'610.0
2018-Feb-24 03:53N 34°07' W 119°37'4 9.4
2018-Feb-24 03:29N 34°09' W 119°41'5 9.9
2018-Feb-24 03:00N 34°14' W 119°41'510.4
2018-Feb-24 02:29N 34°19' W 119°41'4 8.8
2018-Feb-24 02:00N 34°24' W 119°41'0 0.0
2018-Feb-23 23:50N 34°24' W 119°41'0 0.1
2018-Feb-23 23:26N 34°24' W 119°41'0 0.0
2018-Feb-23 18:33N 34°24' W 119°41'0 0.0
2018-Feb-23 18:30N 34°24' W 119°41'0 0.0
2018-Feb-23 14:59N 34°24' W 119°41'0 0.3
2018-Feb-23 14:29N 34°24' W 119°41'7 9.8
2018-Feb-23 13:45N 34°17' W 119°41'411.5
2018-Feb-23 13:25N 34°13' W 119°41'4 9.5
2018-Feb-23 13:00N 34°10' W 119°38'6 9.9
2018-Feb-23 12:24N 34°08' W 119°31'4 9.9
2018-Feb-23 12:00N 34°07' W 119°27'7 9.9
2018-Feb-23 11:17N 34°05' W 119°18'310.3
2018-Feb-23 10:59N 34°04' W 119°15'612.2
2018-Feb-23 10:30N 34°01' W 119°09'612.4
2018-Feb-23 10:00N 33°58' W 119°02'612.2
2018-Feb-23 09:30N 33°55' W 118°56'611.2
2018-Feb-23 09:00N 33°51' W 118°51'510.3
2018-Feb-23 08:30N 33°49' W 118°57'611.7
2018-Feb-23 08:00N 33°49' W 119°04'611.3
2018-Feb-23 07:31N 33°49' W 119°11'69134.4
2018-Feb-23 07:00N 33°12' W 118°00'721845.1 290 / 301023.210.8 11.5 4.915.0
2018-Feb-23 06:57N 33°46' W 119°17'4 9.7
2018-Feb-23 06:30N 33°43' W 119°13'511.0
2018-Feb-23 06:00N 33°43' W 119°07'510.7
2018-Feb-23 05:30N 33°43' W 119°00'611.1
2018-Feb-23 05:00N 33°43' W 118°53'611.2
2018-Feb-23 04:30N 33°43' W 118°47'611.0
2018-Feb-23 04:00N 33°43' W 118°40'510.4
2018-Feb-23 03:30N 33°44' W 118°34'1210.3
2018-Feb-23 02:21N 33°39' W 118°21'4 9.7
2018-Feb-23 01:58N 33°39' W 118°17'4 8.3
2018-Feb-23 01:30N 33°43' W 118°16'2 4.6
2018-Feb-23 01:00N 33°45' W 118°17'0 0.1
2018-Feb-23 00:28N 33°45' W 118°17'0 0.0
2018-Feb-22 23:58N 33°45' W 118°17'0 0.0
2018-Feb-22 23:28N 33°45' W 118°17'0 0.0
2018-Feb-22 22:58N 33°45' W 118°17'0 0.0
2018-Feb-22 22:28N 33°45' W 118°17'0 0.0
2018-Feb-22 22:00N 33°45' W 118°17'0 0.0
2018-Feb-22 21:30N 33°45' W 118°17'0 0.0
2018-Feb-22 21:00N 33°45' W 118°17'0 0.0
2018-Feb-22 20:30N 33°45' W 118°17'0 0.0
2018-Feb-22 20:00N 33°45' W 118°17'0 0.0
2018-Feb-22 19:29N 33°45' W 118°17'0 0.0
2018-Feb-22 18:59N 33°45' W 118°17'0 0.0
2018-Feb-22 18:26N 33°45' W 118°17'0 0.0
2018-Feb-22 17:56N 33°45' W 118°17'0 0.0
2018-Feb-22 17:28N 33°45' W 118°17'0 0.0
2018-Feb-22 16:58N 33°45' W 118°17'0 0.0
2018-Feb-22 16:25N 33°45' W 118°17'0 0.0
2018-Feb-22 15:58N 33°45' W 118°17'0 0.0
2018-Feb-22 15:28N 33°45' W 118°17'0 0.0
2018-Feb-22 15:00N 33°45' W 118°17'0 0.0
2018-Feb-22 14:30N 33°45' W 118°17'1 1.7
2018-Feb-22 14:00N 33°44' W 118°17'4 7.1
2018-Feb-22 13:30N 33°41' W 118°14'2312.5
2018-Feb-22 11:39N 33°20' W 118°03'214.3
2018-Feb-22 11:30N 33°18' W 118°02'815.9
2018-Feb-22 11:00N 33°11' W 117°59'917.8
2018-Feb-22 10:30N 33°02' W 117°55'1019.8
2018-Feb-22 10:00N 32°53' W 117°51'1019.8
2018-Feb-22 09:30N 32°44' W 117°47'1019.9
2018-Feb-22 09:00N 32°34' W 117°43'20420.3
2018-Feb-21 23:00N 29°24' W 116°18'31718.7 290 / 251021.310.8 14.5 3.517.0
2018-Feb-21 06:00N 25°00' W 113°00'16620.8 300 / 201019.510.8 17.0 7.020.0
2018-Feb-20 22:00N 23°18' W 110°36'   300 / 151016.210.8 20.010.921.0
2018-Feb-18 11:22N 30°44' W 116°58'720.3
2018-Feb-18 11:00N 30°51' W 117°01'1020.4
2018-Feb-18 10:30N 31°01' W 117°05'5320.2
2018-Feb-18 07:53N 31°51' W 117°26'820.2
2018-Feb-18 07:29N 31°58' W 117°30'1020.4
2018-Feb-18 06:59N 32°08' W 117°34'920.1
2018-Feb-18 06:30N 32°17' W 117°38'1019.9
2018-Feb-18 06:00N 32°26' W 117°42'917.6
2018-Feb-18 05:30N 32°34' W 117°46'917.5
2018-Feb-18 05:00N 32°43' W 117°50'917.6
2018-Feb-18 04:30N 32°51' W 117°53'917.8
2018-Feb-18 04:00N 32°59' W 117°57'917.4
2018-Feb-18 03:30N 33°07' W 118°01'917.4
2018-Feb-18 03:00N 33°15' W 118°05'917.2
2018-Feb-18 02:30N 33°24' W 118°08'815.3
2018-Feb-18 02:00N 33°31' W 118°11'713.8
2018-Feb-18 01:30N 33°37' W 118°14'611.2
2018-Feb-18 01:00N 33°43' W 118°15'3 5.0
2018-Feb-18 00:30N 33°45' W 118°17'0 0.1
2018-Feb-18 00:01N 33°45' W 118°17'0 0.0
2018-Feb-17 23:30N 33°45' W 118°17'0 0.0
2018-Feb-17 23:00N 33°45' W 118°17'0 0.0
2018-Feb-17 22:30N 33°45' W 118°17'0 0.0
2018-Feb-17 22:00N 33°45' W 118°17'0 0.0
2018-Feb-17 21:29N 33°45' W 118°17'0 0.0
2018-Feb-17 20:59N 33°45' W 118°17'0 0.0
2018-Feb-17 20:29N 33°45' W 118°17'0 0.0
2018-Feb-17 19:59N 33°45' W 118°17'0 0.0
2018-Feb-17 19:29N 33°45' W 118°17'0 0.0
2018-Feb-17 18:58N 33°45' W 118°17'0 0.0
2018-Feb-17 18:28N 33°45' W 118°17'0 0.0
2018-Feb-17 17:58N 33°45' W 118°17'0 0.0
2018-Feb-17 17:25N 33°45' W 118°17'0 0.0
2018-Feb-17 17:01N 33°45' W 118°17'0 0.0
2018-Feb-17 16:30N 33°45' W 118°17'0 0.0
2018-Feb-17 16:00N 33°45' W 118°17'0 0.0
2018-Feb-17 15:30N 33°45' W 118°17'0 0.0
2018-Feb-17 15:00N 33°45' W 118°17'0 0.0
2018-Feb-17 14:30N 33°45' W 118°17'1 1.8
2018-Feb-17 14:00N 33°44' W 118°17'3 6.2
2018-Feb-17 13:31N 33°42' W 118°14'611.0
2018-Feb-17 13:00N 33°37' W 118°10'713.4
2018-Feb-17 12:31N 33°31' W 118°08'714.1
2018-Feb-17 12:00N 33°24' W 118°05'714.1
2018-Feb-17 11:30N 33°18' W 118°02'714.3
2018-Feb-17 11:01N 33°11' W 117°59'714.9
2018-Feb-17 10:30N 33°04' W 117°56'816.1
2018-Feb-17 10:00N 32°56' W 117°52'816.7
2018-Feb-17 09:30N 32°49' W 117°49'816.8
2018-Feb-17 09:01N 32°41' W 117°46'714.3
2018-Feb-17 08:30N 32°34' W 117°43'816.5
2018-Feb-17 08:00N 32°26' W 117°39'917.5
2018-Feb-17 07:31N 32°18' W 117°36'19220.2
2018-Feb-16 22:00N 29°18' W 116°18'17822.2 140 / 91017.610.8 17.014.418.0
2018-Feb-16 14:00N 26°48' W 114°30'8220.5 190 / 11017.510.8 17.514.019.0
2018-Feb-16 10:00N 25°42' W 113°36'30712.8 290 / 151018.110.8 19.016.519.0
2018-Feb-15 10:00N 22°54' W 108°54'   330 / 151016.410.8 21.517.521.0
Track history (hours):
 
Tides and Currents Weather Stations Pressure Air Temp Water Temp Dewpoint Dewpoint Depression Visibility Wind Speed Wind Dir Waves Ship Positions

Ruby Princess

Last reported at 2018-Feb-24 12:00 UTC. Time now 2018-Feb-24 12:18 UTC.
Position N 33°27' W 118°10'.

Length 289 m; draft 8.6 m.

Type: Ship. MMSI: 310567000.

Date/timePositionNaut miles runAvg speedWind from/ knotsBaromVisibWave heightAir tempDewpointWater temp
2018-Feb-24 12:00N 33°27' W 118°10'510.7
2018-Feb-24 11:30N 33°32' W 118°12'2 3.3
2018-Feb-24 11:00N 33°30' W 118°12'2115.7 030 / 151026.010.8 11.5-1.015.0
2018-Feb-24 09:39N 33°42' W 118°33'211.0
2018-Feb-24 09:28N 33°43' W 118°35'510.8
2018-Feb-24 09:00N 33°45' W 118°40'510.5
2018-Feb-24 08:30N 33°48' W 118°46'510.1
2018-Feb-24 08:00N 33°50' W 118°51'510.2
2018-Feb-24 07:30N 33°53' W 118°57'510.4
2018-Feb-24 06:59N 33°56' W 119°02'510.4
2018-Feb-24 06:30N 33°58' W 119°07'510.1
2018-Feb-24 06:00N 34°01' W 119°12'510.1
2018-Feb-24 05:29N 34°03' W 119°18'5 9.9
2018-Feb-24 04:58N 34°04' W 119°24'510.1
2018-Feb-24 04:30N 34°05' W 119°30'610.0
2018-Feb-24 03:53N 34°07' W 119°37'4 9.4
2018-Feb-24 03:29N 34°09' W 119°41'5 9.9
2018-Feb-24 03:00N 34°14' W 119°41'510.4
2018-Feb-24 02:29N 34°19' W 119°41'4 8.8
2018-Feb-24 02:00N 34°24' W 119°41'0 0.0
2018-Feb-23 23:50N 34°24' W 119°41'0 0.1
2018-Feb-23 23:26N 34°24' W 119°41'0 0.0
2018-Feb-23 18:33N 34°24' W 119°41'0 0.0
2018-Feb-23 18:30N 34°24' W 119°41'0 0.0
2018-Feb-23 14:59N 34°24' W 119°41'0 0.3
2018-Feb-23 14:29N 34°24' W 119°41'7 9.8
2018-Feb-23 13:45N 34°17' W 119°41'411.5
2018-Feb-23 13:25N 34°13' W 119°41'4 9.5
2018-Feb-23 13:00N 34°10' W 119°38'6 9.9
2018-Feb-23 12:24N 34°08' W 119°31'4 9.9
2018-Feb-23 12:00N 34°07' W 119°27'7 9.9
2018-Feb-23 11:17N 34°05' W 119°18'310.3
2018-Feb-23 10:59N 34°04' W 119°15'612.2
2018-Feb-23 10:30N 34°01' W 119°09'612.4
2018-Feb-23 10:00N 33°58' W 119°02'612.2
2018-Feb-23 09:30N 33°55' W 118°56'611.2
2018-Feb-23 09:00N 33°51' W 118°51'510.3
2018-Feb-23 08:30N 33°49' W 118°57'611.7
2018-Feb-23 08:00N 33°49' W 119°04'611.3
2018-Feb-23 07:31N 33°49' W 119°11'69134.4
2018-Feb-23 07:00N 33°12' W 118°00'721845.1 290 / 301023.210.8 11.5 4.915.0
2018-Feb-23 06:57N 33°46' W 119°17'4 9.7
2018-Feb-23 06:30N 33°43' W 119°13'511.0
2018-Feb-23 06:00N 33°43' W 119°07'510.7
2018-Feb-23 05:30N 33°43' W 119°00'611.1
2018-Feb-23 05:00N 33°43' W 118°53'611.2
2018-Feb-23 04:30N 33°43' W 118°47'611.0
2018-Feb-23 04:00N 33°43' W 118°40'510.4
2018-Feb-23 03:30N 33°44' W 118°34'1210.3
2018-Feb-23 02:21N 33°39' W 118°21'4 9.7
2018-Feb-23 01:58N 33°39' W 118°17'4 8.3
2018-Feb-23 01:30N 33°43' W 118°16'2 4.6
2018-Feb-23 01:00N 33°45' W 118°17'0 0.1
2018-Feb-23 00:28N 33°45' W 118°17'0 0.0
2018-Feb-22 23:58N 33°45' W 118°17'0 0.0
2018-Feb-22 23:28N 33°45' W 118°17'0 0.0
2018-Feb-22 22:58N 33°45' W 118°17'0 0.0
2018-Feb-22 22:28N 33°45' W 118°17'0 0.0
2018-Feb-22 22:00N 33°45' W 118°17'0 0.0
2018-Feb-22 21:30N 33°45' W 118°17'0 0.0
2018-Feb-22 21:00N 33°45' W 118°17'0 0.0
2018-Feb-22 20:30N 33°45' W 118°17'0 0.0
2018-Feb-22 20:00N 33°45' W 118°17'0 0.0
2018-Feb-22 19:29N 33°45' W 118°17'0 0.0
2018-Feb-22 18:59N 33°45' W 118°17'0 0.0
2018-Feb-22 18:26N 33°45' W 118°17'0 0.0
2018-Feb-22 17:56N 33°45' W 118°17'0 0.0
2018-Feb-22 17:28N 33°45' W 118°17'0 0.0
2018-Feb-22 16:58N 33°45' W 118°17'0 0.0
2018-Feb-22 16:25N 33°45' W 118°17'0 0.0
2018-Feb-22 15:58N 33°45' W 118°17'0 0.0
2018-Feb-22 15:28N 33°45' W 118°17'0 0.0
2018-Feb-22 15:00N 33°45' W 118°17'0 0.0
2018-Feb-22 14:30N 33°45' W 118°17'1 1.7
2018-Feb-22 14:00N 33°44' W 118°17'4 7.1
2018-Feb-22 13:30N 33°41' W 118°14'2312.5
2018-Feb-22 11:39N 33°20' W 118°03'214.3
2018-Feb-22 11:30N 33°18' W 118°02'815.9
2018-Feb-22 11:00N 33°11' W 117°59'917.8
2018-Feb-22 10:30N 33°02' W 117°55'1019.8
2018-Feb-22 10:00N 32°53' W 117°51'1019.8
2018-Feb-22 09:30N 32°44' W 117°47'1019.9
2018-Feb-22 09:00N 32°34' W 117°43'20420.3
2018-Feb-21 23:00N 29°24' W 116°18'31718.7 290 / 251021.310.8 14.5 3.517.0
2018-Feb-21 06:00N 25°00' W 113°00'16620.8 300 / 201019.510.8 17.0 7.020.0
2018-Feb-20 22:00N 23°18' W 110°36'   300 / 151016.210.8 20.010.921.0
2018-Feb-18 11:22N 30°44' W 116°58'720.3
2018-Feb-18 11:00N 30°51' W 117°01'1020.4
2018-Feb-18 10:30N 31°01' W 117°05'5320.2
2018-Feb-18 07:53N 31°51' W 117°26'820.2
2018-Feb-18 07:29N 31°58' W 117°30'1020.4
2018-Feb-18 06:59N 32°08' W 117°34'920.1
2018-Feb-18 06:30N 32°17' W 117°38'1019.9
2018-Feb-18 06:00N 32°26' W 117°42'917.6
2018-Feb-18 05:30N 32°34' W 117°46'917.5
2018-Feb-18 05:00N 32°43' W 117°50'917.6
2018-Feb-18 04:30N 32°51' W 117°53'917.8
2018-Feb-18 04:00N 32°59' W 117°57'917.4
2018-Feb-18 03:30N 33°07' W 118°01'917.4
2018-Feb-18 03:00N 33°15' W 118°05'917.2
2018-Feb-18 02:30N 33°24' W 118°08'815.3
2018-Feb-18 02:00N 33°31' W 118°11'713.8
2018-Feb-18 01:30N 33°37' W 118°14'611.2
2018-Feb-18 01:00N 33°43' W 118°15'3 5.0
2018-Feb-18 00:30N 33°45' W 118°17'0 0.1
2018-Feb-18 00:01N 33°45' W 118°17'0 0.0
2018-Feb-17 23:30N 33°45' W 118°17'0 0.0
2018-Feb-17 23:00N 33°45' W 118°17'0 0.0
2018-Feb-17 22:30N 33°45' W 118°17'0 0.0
2018-Feb-17 22:00N 33°45' W 118°17'0 0.0
2018-Feb-17 21:29N 33°45' W 118°17'0 0.0
2018-Feb-17 20:59N 33°45' W 118°17'0 0.0
2018-Feb-17 20:29N 33°45' W 118°17'0 0.0
2018-Feb-17 19:59N 33°45' W 118°17'0 0.0
2018-Feb-17 19:29N 33°45' W 118°17'0 0.0
2018-Feb-17 18:58N 33°45' W 118°17'0 0.0
2018-Feb-17 18:28N 33°45' W 118°17'0 0.0
2018-Feb-17 17:58N 33°45' W 118°17'0 0.0
2018-Feb-17 17:25N 33°45' W 118°17'0 0.0
2018-Feb-17 17:01N 33°45' W 118°17'0 0.0
2018-Feb-17 16:30N 33°45' W 118°17'0 0.0
2018-Feb-17 16:00N 33°45' W 118°17'0 0.0
2018-Feb-17 15:30N 33°45' W 118°17'0 0.0
2018-Feb-17 15:00N 33°45' W 118°17'0 0.0
2018-Feb-17 14:30N 33°45' W 118°17'1 1.8
2018-Feb-17 14:00N 33°44' W 118°17'3 6.2
2018-Feb-17 13:31N 33°42' W 118°14'611.0
2018-Feb-17 13:00N 33°37' W 118°10'713.4
2018-Feb-17 12:31N 33°31' W 118°08'714.1
2018-Feb-17 12:00N 33°24' W 118°05'714.1
2018-Feb-17 11:30N 33°18' W 118°02'714.3
2018-Feb-17 11:01N 33°11' W 117°59'714.9
2018-Feb-17 10:30N 33°04' W 117°56'816.1
2018-Feb-17 10:00N 32°56' W 117°52'816.7
2018-Feb-17 09:30N 32°49' W 117°49'816.8
2018-Feb-17 09:01N 32°41' W 117°46'714.3
2018-Feb-17 08:30N 32°34' W 117°43'816.5
2018-Feb-17 08:00N 32°26' W 117°39'917.5
2018-Feb-17 07:31N 32°18' W 117°36'19220.2
2018-Feb-16 22:00N 29°18' W 116°18'17822.2 140 / 91017.610.8 17.014.418.0
2018-Feb-16 14:00N 26°48' W 114°30'8220.5 190 / 11017.510.8 17.514.019.0
2018-Feb-16 10:00N 25°42' W 113°36'30712.8 290 / 151018.110.8 19.016.519.0
2018-Feb-15 10:00N 22°54' W 108°54'   330 / 151016.410.8 21.517.521.0

Dump ship's entire track history